Time;durP1;ratioP1;P1;durP2;ratioP2;P2;SDS_P1;SDS_P2;PMS_P1;PMS_P2;Temp;Humidity;BMP_temperature;BMP_pressure;BME280_temperature;BME280_humidity;BME280_pressure;Samples;Min_cycle;Max_cycle;Signal;HPM_P1;HPM_P2
2022/04/24 00:01:11;;;;;;;3.97;2.03;;;12.20;86.30;;;;;;4997362;28;20138;-60
2022/04/24 00:03:37;;;;;;;4.53;1.60;;;12.20;86.80;;;;;;4998724;28;20037;-60
2022/04/24 00:06:03;;;;;;;3.72;1.80;;;12.10;87.00;;;;;;4997091;28;20049;-61
2022/04/24 00:08:28;;;;;;;2.80;1.80;;;12.10;87.20;;;;;;4999619;28;20045;-62
2022/04/24 00:10:54;;;;;;;3.92;2.05;;;12.10;87.50;;;;;;4996835;28;20035;-61
2022/04/24 00:13:20;;;;;;;3.45;1.90;;;12.00;87.60;;;;;;4998118;28;20395;-62
2022/04/24 00:15:45;;;;;;;3.55;1.55;;;12.00;88.30;;;;;;4996736;28;20053;-62
2022/04/24 00:18:11;;;;;;;4.68;1.88;;;12.00;88.20;;;;;;4998046;28;20073;-61
2022/04/24 00:20:37;;;;;;;4.22;2.20;;;12.00;88.80;;;;;;4998462;28;20129;-61
2022/04/24 00:23:03;;;;;;;2.55;1.52;;;12.00;88.60;;;;;;4995696;28;20120;-62
2022/04/24 00:25:28;;;;;;;2.90;1.83;;;11.90;89.00;;;;;;4999707;28;20080;-61
2022/04/24 00:27:54;;;;;;;3.60;1.77;;;11.90;89.20;;;;;;4996870;28;20034;-62
2022/04/24 00:30:20;;;;;;;3.15;1.92;;;11.80;89.20;;;;;;4998862;28;20671;-61
2022/04/24 00:32:45;;;;;;;4.70;2.78;;;11.80;89.70;;;;;;4996562;28;20034;-62
2022/04/24 00:35:11;;;;;;;5.78;1.73;;;11.70;90.20;;;;;;5000877;28;20065;-61
2022/04/24 00:37:36;;;;;;;5.38;1.95;;;11.70;90.30;;;;;;4996914;28;20041;-61
2022/04/24 00:40:02;;;;;;;3.42;2.05;;;11.70;90.30;;;;;;4999488;28;20626;-62
2022/04/24 00:42:29;;;;;;;3.85;2.13;;;11.70;90.40;;;;;;4996036;28;20482;-61
2022/04/24 00:44:55;;;;;;;4.07;2.20;;;11.70;90.50;;;;;;4992498;28;20030;-62
2022/04/24 00:47:22;;;;;;;5.00;2.10;;;11.60;90.60;;;;;;4999332;28;20505;-61
2022/04/24 00:49:48;;;;;;;3.78;2.00;;;11.60;90.90;;;;;;4996713;28;20052;-62
2022/04/24 00:52:14;;;;;;;4.40;2.25;;;11.60;90.70;;;;;;4997776;28;20113;-61
2022/04/24 00:54:40;;;;;;;4.30;2.47;;;11.50;90.90;;;;;;4997156;28;20045;-63
2022/04/24 00:57:08;;;;;;;5.25;2.13;;;11.50;90.80;;;;;;4997303;28;20044;-61
2022/04/24 00:59:34;;;;;;;5.20;2.63;;;11.50;91.10;;;;;;4997922;28;20072;-63
2022/04/24 01:02:02;;;;;;;5.15;2.08;;;11.50;91.30;;;;;;4996321;28;20061;-62
2022/04/24 01:04:27;;;;;;;5.65;2.35;;;11.40;91.40;;;;;;4998433;28;20160;-62
2022/04/24 01:06:53;;;;;;;4.57;2.45;;;11.40;91.60;;;;;;4992262;28;20133;-61
2022/04/24 01:09:20;;;;;;;3.92;2.20;;;11.30;91.90;;;;;;4998989;28;20026;-62
2022/04/24 01:11:48;;;;;;;4.35;2.72;;;11.30;92.00;;;;;;4996198;28;20030;-61
2022/04/24 01:14:16;;;;;;;4.72;2.80;;;11.30;92.20;;;;;;4997846;28;20035;-61
2022/04/24 01:16:42;;;;;;;5.68;2.38;;;11.20;92.40;;;;;;4997054;28;20616;-61
2022/04/24 01:19:08;;;;;;;8.73;3.13;;;11.20;92.60;;;;;;4997803;28;20066;-63
2022/04/24 01:21:34;;;;;;;4.35;2.58;;;11.20;92.70;;;;;;4997538;28;20072;-62
2022/04/24 01:24:03;;;;;;;9.57;3.67;;;11.20;93.10;;;;;;4995697;28;20050;-62
2022/04/24 01:26:28;;;;;;;4.78;2.55;;;11.20;93.30;;;;;;4998124;28;20121;-61
2022/04/24 01:28:54;;;;;;;6.78;2.90;;;11.10;93.60;;;;;;4995784;28;20463;-61
2022/04/24 01:31:20;;;;;;;4.38;2.80;;;11.10;93.90;;;;;;4998824;28;20038;-64
2022/04/24 01:33:45;;;;;;;7.30;3.45;;;11.10;94.30;;;;;;4993622;28;20410;-62
2022/04/24 01:36:11;;;;;;;7.35;3.33;;;11.00;94.50;;;;;;5000677;28;20161;-61
2022/04/24 01:38:37;;;;;;;4.68;2.58;;;11.00;94.90;;;;;;5000211;28;20502;-61
2022/04/24 01:41:02;;;;;;;5.35;3.60;;;10.90;95.10;;;;;;5001727;28;20042;-62
2022/04/24 01:43:28;;;;;;;7.68;3.38;;;10.90;95.40;;;;;;5000144;28;20505;-61
2022/04/24 01:45:54;;;;;;;6.28;3.35;;;10.90;95.70;;;;;;4997956;28;20437;-62
2022/04/24 01:48:20;;;;;;;6.55;3.10;;;10.90;95.80;;;;;;5002443;28;20041;-61
2022/04/24 01:50:46;;;;;;;5.63;3.42;;;10.90;96.00;;;;;;4999257;28;20038;-62
2022/04/24 01:53:11;;;;;;;8.00;3.67;;;10.80;96.30;;;;;;5000355;28;20368;-61
2022/04/24 01:55:37;;;;;;;10.20;3.50;;;10.80;96.50;;;;;;4993694;28;20503;-61
2022/04/24 01:58:02;;;;;;;7.68;3.22;;;10.80;96.80;;;;;;4999773;28;20521;-61
2022/04/24 02:00:29;;;;;;;8.02;3.72;;;10.80;97.00;;;;;;4998434;28;20034;-62
2022/04/24 02:02:55;;;;;;;7.30;3.88;;;10.80;97.10;;;;;;5000849;28;20030;-62
2022/04/24 02:05:21;;;;;;;9.25;4.05;;;10.80;97.30;;;;;;4998752;28;20035;-62
2022/04/24 02:07:46;;;;;;;6.93;3.65;;;10.70;97.50;;;;;;5001524;28;20494;-61
2022/04/24 02:10:12;;;;;;;5.85;3.28;;;10.70;97.80;;;;;;4999341;28;20046;-61
2022/04/24 02:12:40;;;;;;;6.70;3.10;;;10.70;98.10;;;;;;4998880;28;20054;-61
2022/04/24 02:15:07;;;;;;;6.32;3.47;;;10.60;98.40;;;;;;5000542;28;20026;-61
2022/04/24 02:17:34;;;;;;;5.50;3.47;;;10.60;98.80;;;;;;4999183;28;20039;-61
2022/04/24 02:20:00;;;;;;;6.47;3.78;;;10.50;99.00;;;;;;5001029;28;20033;-61
2022/04/24 02:22:31;;;;;;;8.18;4.53;;;10.50;99.30;;;;;;4997236;28;20045;-61
2022/04/24 02:24:57;;;;;;;7.95;4.05;;;10.50;99.60;;;;;;5001249;28;20775;-61
2022/04/24 02:27:22;;;;;;;9.00;3.92;;;10.40;99.90;;;;;;4997949;28;20121;-61
2022/04/24 02:29:48;;;;;;;8.43;4.80;;;10.40;99.90;;;;;;5001413;28;20732;-63
2022/04/24 02:32:13;;;;;;;6.57;3.83;;;10.30;99.90;;;;;;4998574;28;20038;-62
2022/04/24 02:34:39;;;;;;;7.72;3.97;;;10.30;99.90;;;;;;4998553;28;20891;-61
2022/04/24 02:37:05;;;;;;;13.00;4.32;;;10.20;99.90;;;;;;4999693;28;20168;-62
2022/04/24 02:39:30;;;;;;;6.95;4.00;;;10.20;99.90;;;;;;4998629;28;20068;-62
2022/04/24 02:41:56;;;;;;;9.98;4.70;;;10.20;99.90;;;;;;4999759;28;20034;-63
2022/04/24 02:44:22;;;;;;;11.48;4.45;;;10.10;99.90;;;;;;5000176;28;20037;-61
2022/04/24 02:46:47;;;;;;;12.02;4.80;;;10.20;99.90;;;;;;4993051;28;20039;-63
2022/04/24 02:49:13;;;;;;;11.68;4.82;;;10.10;99.90;;;;;;5000672;28;20532;-60
2022/04/24 02:51:38;;;;;;;7.05;4.70;;;10.00;99.90;;;;;;4998445;28;20088;-62
2022/04/24 02:54:04;;;;;;;10.20;4.80;;;10.00;99.90;;;;;;4998443;28;20034;-62
2022/04/24 02:56:30;;;;;;;8.70;4.47;;;10.00;99.90;;;;;;4999626;28;20049;-61
2022/04/24 02:58:56;;;;;;;9.45;5.18;;;9.90;99.90;;;;;;5001722;28;20064;-62
2022/04/24 03:01:22;;;;;;;8.75;4.50;;;9.90;99.90;;;;;;4997071;28;20132;-62
2022/04/24 03:03:49;;;;;;;9.02;4.50;;;9.90;99.90;;;;;;5000361;28;20153;-62
2022/04/24 03:06:15;;;;;;;8.88;4.30;;;9.90;99.90;;;;;;4997812;28;20030;-61
2022/04/24 03:08:41;;;;;;;7.35;3.83;;;9.80;99.90;;;;;;4995499;28;20038;-62
2022/04/24 03:11:07;;;;;;;9.27;4.30;;;9.80;99.90;;;;;;4998904;28;20039;-63
2022/04/24 03:13:33;;;;;;;10.32;4.43;;;9.70;99.90;;;;;;4997537;28;20585;-61
2022/04/24 03:15:58;;;;;;;9.27;4.10;;;9.70;99.90;;;;;;4999596;28;20490;-60
2022/04/24 03:18:24;;;;;;;6.28;3.70;;;9.70;99.90;;;;;;4997523;28;20659;-62
2022/04/24 03:20:49;;;;;;;11.27;4.03;;;9.70;99.90;;;;;;5000901;28;20062;-62
2022/04/24 03:23:15;;;;;;;8.35;4.38;;;9.70;99.90;;;;;;4996181;28;20069;-62
2022/04/24 03:25:41;;;;;;;6.72;3.67;;;9.80;99.90;;;;;;4995456;28;20030;-61
2022/04/24 03:28:08;;;;;;;6.07;3.30;;;9.80;99.90;;;;;;4998958;28;20049;-63
2022/04/24 03:30:35;;;;;;;12.45;3.90;;;9.80;99.90;;;;;;4996548;28;20339;-62
2022/04/24 03:33:01;;;;;;;6.78;3.67;;;9.70;99.90;;;;;;4997731;28;20035;-62
2022/04/24 03:35:26;;;;;;;10.35;4.00;;;9.80;99.90;;;;;;4995046;28;20049;-61
2022/04/24 03:37:52;;;;;;;7.00;3.65;;;9.80;99.90;;;;;;5000068;28;20034;-61
2022/04/24 03:40:19;;;;;;;8.65;3.60;;;9.70;99.90;;;;;;4996386;28;20073;-61
2022/04/24 03:42:46;;;;;;;6.40;3.22;;;9.70;99.90;;;;;;4992010;28;20054;-62
2022/04/24 03:45:12;;;;;;;7.47;3.03;;;9.70;99.90;;;;;;4999792;28;20072;-61
2022/04/24 03:47:38;;;;;;;7.75;3.50;;;9.70;99.90;;;;;;4999372;28;20038;-61
2022/04/24 03:50:05;;;;;;;8.50;4.57;;;9.60;99.90;;;;;;4997954;28;20038;-63
2022/04/24 03:52:31;;;;;;;9.40;3.47;;;9.60;99.90;;;;;;4997484;28;20064;-61
2022/04/24 03:54:57;;;;;;;5.78;2.95;;;9.60;99.90;;;;;;4998500;28;20041;-62
2022/04/24 03:57:23;;;;;;;7.80;3.67;;;9.60;99.90;;;;;;4996771;28;20062;-63
2022/04/24 03:59:48;;;;;;;8.07;3.65;;;9.50;99.90;;;;;;4999417;28;20033;-63
2022/04/24 04:02:14;;;;;;;10.43;3.45;;;9.60;99.90;;;;;;4996041;28;21037;-60
2022/04/24 04:04:40;;;;;;;7.47;3.25;;;9.50;99.90;;;;;;4995622;28;20141;-62
2022/04/24 04:07:06;;;;;;;6.10;3.13;;;9.50;99.90;;;;;;4999096;28;20026;-61
2022/04/24 04:09:31;;;;;;;6.00;3.20;;;9.50;99.90;;;;;;4995859;28;20041;-61
2022/04/24 04:11:57;;;;;;;7.95;2.92;;;9.50;99.90;;;;;;4997435;28;20030;-61
2022/04/24 04:14:22;;;;;;;6.38;2.78;;;9.40;99.90;;;;;;4998011;28;20757;-64
2022/04/24 04:16:49;;;;;;;5.90;3.08;;;9.40;99.90;;;;;;4996829;28;20047;-61
2022/04/24 04:19:15;;;;;;;9.73;3.40;;;9.40;99.90;;;;;;4996400;28;20096;-60
2022/04/24 04:21:41;;;;;;;6.50;3.15;;;9.40;99.90;;;;;;4999038;28;20562;-61
2022/04/24 04:24:08;;;;;;;6.50;2.97;;;9.40;99.90;;;;;;4994684;28;20061;-61
2022/04/24 04:26:34;;;;;;;8.27;3.55;;;9.40;99.90;;;;;;4997954;28;20047;-60
2022/04/24 04:28:59;;;;;;;6.43;2.70;;;9.40;99.90;;;;;;4997598;28;20563;-61
2022/04/24 04:31:25;;;;;;;10.52;3.10;;;9.40;99.90;;;;;;4995749;28;20517;-61
2022/04/24 04:33:51;;;;;;;5.75;3.33;;;9.30;99.90;;;;;;4996477;28;20491;-62
2022/04/24 04:36:16;;;;;;;6.72;2.85;;;9.30;99.90;;;;;;4999100;28;20370;-61
2022/04/24 04:38:42;;;;;;;8.02;3.05;;;9.30;99.90;;;;;;4999252;28;20044;-62
2022/04/24 04:41:08;;;;;;;7.13;3.30;;;9.30;99.90;;;;;;4996324;28;20026;-60
2022/04/24 04:43:33;;;;;;;8.35;3.60;;;9.30;99.90;;;;;;4997993;28;20038;-61
2022/04/24 04:45:59;;;;;;;5.63;2.78;;;9.30;99.90;;;;;;4997788;28;20038;-61
2022/04/24 04:48:25;;;;;;;5.70;2.90;;;9.40;99.90;;;;;;4997510;28;20046;-61
2022/04/24 04:50:51;;;;;;;5.75;2.95;;;9.30;99.90;;;;;;4996648;28;20089;-61
2022/04/24 04:53:17;;;;;;;7.15;3.20;;;9.30;99.90;;;;;;4998146;28;20065;-63
2022/04/24 04:55:43;;;;;;;4.53;2.67;;;9.40;99.90;;;;;;4995620;28;20521;-61
2022/04/24 04:58:08;;;;;;;11.50;2.90;;;9.30;99.90;;;;;;4999098;28;20100;-61
2022/04/24 05:00:34;;;;;;;6.03;2.95;;;9.30;99.90;;;;;;4995395;28;20031;-61
2022/04/24 05:02:59;;;;;;;7.82;3.63;;;9.30;99.90;;;;;;4997141;28;20030;-61
2022/04/24 05:05:25;;;;;;;6.93;2.53;;;9.30;99.90;;;;;;4997249;28;20514;-60
2022/04/24 05:07:51;;;;;;;7.45;2.85;;;9.30;99.90;;;;;;4996717;28;20035;-60
2022/04/24 05:10:17;;;;;;;7.55;2.85;;;9.30;99.90;;;;;;5000794;28;20049;-61
2022/04/24 05:12:43;;;;;;;5.38;2.88;;;9.30;99.90;;;;;;4998613;28;20065;-61
2022/04/24 05:15:13;;;;;;;4.60;2.58;;;9.30;99.90;;;;;;4995436;28;20030;-61
2022/04/24 05:17:40;;;;;;;6.25;2.97;;;9.30;99.90;;;;;;4995549;28;20034;-61
2022/04/24 05:20:09;;;;;;;5.82;2.38;;;9.30;99.90;;;;;;4999613;28;20041;-61
2022/04/24 05:22:34;;;;;;;4.68;2.42;;;9.30;99.90;;;;;;5000928;28;20034;-61
2022/04/24 05:25:00;;;;;;;5.13;2.65;;;9.40;99.90;;;;;;5000631;28;20029;-61
2022/04/24 05:27:27;;;;;;;7.00;3.10;;;9.40;99.90;;;;;;5000629;28;20546;-62
2022/04/24 05:29:52;;;;;;;4.78;2.45;;;9.40;99.90;;;;;;5001364;28;20549;-61
2022/04/24 05:32:18;;;;;;;6.35;2.83;;;9.50;99.90;;;;;;5003983;28;20065;-62
2022/04/24 05:34:44;;;;;;;5.65;2.72;;;9.50;99.90;;;;;;5001722;28;20108;-63
2022/04/24 05:37:10;;;;;;;5.28;2.40;;;9.60;99.90;;;;;;4998601;28;20034;-61
2022/04/24 05:39:35;;;;;;;5.40;2.10;;;9.60;99.90;;;;;;4998924;28;20037;-61
2022/04/24 05:42:01;;;;;;;4.03;2.35;;;9.60;99.90;;;;;;5001667;28;20818;-63
2022/04/24 05:44:27;;;;;;;5.07;2.40;;;9.70;99.90;;;;;;4999302;28;20628;-61
2022/04/24 05:46:52;;;;;;;10.48;3.33;;;9.80;99.90;;;;;;5000223;28;20114;-61
2022/04/24 05:49:18;;;;;;;6.35;2.85;;;9.90;99.90;;;;;;5002412;28;20073;-59
2022/04/24 05:51:44;;;;;;;5.43;2.63;;;10.00;99.90;;;;;;5001897;28;20117;-62
2022/04/24 05:54:11;;;;;;;6.13;2.30;;;10.30;99.90;;;;;;5001708;28;20159;-61
2022/04/24 05:56:37;;;;;;;4.10;2.28;;;11.40;99.90;;;;;;4998576;28;20026;-63
2022/04/24 05:59:03;;;;;;;4.47;2.35;;;12.60;99.40;;;;;;5002014;28;20124;-62
2022/04/24 06:01:28;;;;;;;3.58;1.60;;;13.70;97.00;;;;;;4998538;28;20060;-61
2022/04/24 06:03:54;;;;;;;4.18;1.90;;;14.70;95.40;;;;;;4999959;28;20490;-62
2022/04/24 06:06:19;;;;;;;5.05;1.75;;;15.40;92.50;;;;;;4996671;28;20056;-60
2022/04/24 06:08:45;;;;;;;5.30;1.80;;;15.80;90.90;;;;;;4987196;28;20034;-60
2022/04/24 06:11:10;;;;;;;4.32;1.85;;;16.40;89.50;;;;;;4987332;28;20030;-60
2022/04/24 06:13:36;;;;;;;4.18;1.98;;;16.40;87.50;;;;;;4988025;28;20034;-60
2022/04/24 06:16:02;;;;;;;4.22;2.03;;;16.80;85.60;;;;;;4992139;28;20506;-61
2022/04/24 06:18:28;;;;;;;4.70;2.20;;;17.30;83.90;;;;;;4990790;28;20491;-62
2022/04/24 06:20:54;;;;;;;4.65;1.85;;;17.50;83.00;;;;;;4991746;28;20035;-61
2022/04/24 06:23:20;;;;;;;3.53;1.85;;;17.70;80.60;;;;;;4990922;28;20471;-60
2022/04/24 06:25:46;;;;;;;2.33;1.40;;;18.00;79.50;;;;;;4990800;28;20038;-60
2022/04/24 06:28:12;;;;;;;4.32;1.90;;;18.10;78.10;;;;;;4993579;28;20040;-61
2022/04/24 06:30:41;;;;;;;1.92;1.58;;;18.40;77.70;;;;;;4988695;28;20145;-61
2022/04/24 06:33:08;;;;;;;5.72;2.25;;;18.40;77.40;;;;;;4993044;28;20614;-62
2022/04/24 06:35:33;;;;;;;3.95;2.00;;;18.70;75.30;;;;;;5000258;28;20114;-61
2022/04/24 06:37:59;;;;;;;3.67;2.13;;;18.60;75.00;;;;;;5001940;28;20094;-62
2022/04/24 06:40:26;;;;;;;5.95;1.67;;;18.70;73.60;;;;;;4999300;28;20501;-61
2022/04/24 06:42:54;;;;;;;2.10;1.52;;;18.70;74.40;;;;;;4996251;28;20080;-61
2022/04/24 06:45:31;;;;;;;6.65;1.77;;;18.80;73.00;;;;;;4994476;28;20112;-61
2022/04/24 06:48:09;;;;;;;3.72;1.80;;;18.90;72.90;;;;;;4998200;28;20038;-61
2022/04/24 06:50:37;;;;;;;2.60;1.70;;;18.70;72.50;;;;;;4991680;28;20039;-63
2022/04/24 06:53:07;;;;;;;2.95;1.52;;;18.90;73.10;;;;;;4999564;28;20124;-60
2022/04/24 06:55:38;;;;;;;3.33;1.77;;;19.50;70.60;;;;;;4996361;28;20035;-61
2022/04/24 06:58:05;;;;;;;1.83;1.48;;;19.70;70.40;;;;;;4992006;28;20124;-61
2022/04/24 07:00:33;;;;;;;2.80;1.50;;;19.50;69.90;;;;;;4996050;28;20038;-61
2022/04/24 07:02:58;;;;;;;2.50;1.40;;;19.70;69.00;;;;;;4998583;28;20041;-61
2022/04/24 07:05:27;;;;;;;5.07;1.80;;;19.60;69.30;;;;;;4995612;28;20050;-62
2022/04/24 07:07:53;;;;;;;5.78;1.95;;;19.90;68.70;;;;;;4997170;28;20045;-61
2022/04/24 07:10:19;;;;;;;2.13;1.30;;;19.50;67.60;;;;;;4997819;28;20035;-61
2022/04/24 07:12:52;;;;;;;2.83;1.85;;;19.60;69.20;;;;;;4996186;28;20115;-61
2022/04/24 07:15:19;;;;;;;2.78;1.67;;;20.10;67.80;;;;;;4997698;28;20419;-61
2022/04/24 07:17:46;;;;;;;2.33;1.40;;;20.20;67.90;;;;;;4998029;28;20108;-61
2022/04/24 07:20:14;;;;;;;4.85;1.90;;;20.20;66.30;;;;;;4996781;28;20058;-61
2022/04/24 07:22:42;;;;;;;4.35;1.92;;;20.40;66.40;;;;;;4997818;28;20402;-61
2022/04/24 07:25:08;;;;;;;3.90;1.50;;;20.00;66.70;;;;;;4995884;28;20044;-61
2022/04/24 07:27:33;;;;;;;5.50;1.75;;;19.70;66.30;;;;;;4995839;28;20133;-61
2022/04/24 07:29:59;;;;;;;2.55;1.60;;;19.40;67.20;;;;;;4996679;28;20129;-61
2022/04/24 07:32:25;;;;;;;3.10;1.77;;;19.60;66.60;;;;;;4993626;28;20035;-62
2022/04/24 07:34:50;;;;;;;3.92;1.90;;;19.60;67.30;;;;;;4996309;28;20452;-61
2022/04/24 07:37:17;;;;;;;3.28;1.85;;;19.10;67.10;;;;;;4997065;28;20030;-63
2022/04/24 07:39:42;;;;;;;3.55;1.58;;;18.60;69.10;;;;;;4998013;28;20109;-61
2022/04/24 07:42:08;;;;;;;2.22;1.35;;;18.40;68.80;;;;;;4995327;28;20129;-61
2022/04/24 07:44:33;;;;;;;3.13;1.73;;;18.10;70.60;;;;;;4995064;28;20038;-61
2022/04/24 07:46:59;;;;;;;3.03;1.95;;;17.70;72.90;;;;;;4998879;28;20092;-61
2022/04/24 07:49:24;;;;;;;9.52;2.42;;;17.10;74.40;;;;;;4995563;28;20049;-61
2022/04/24 07:51:50;;;;;;;6.10;2.17;;;16.80;76.20;;;;;;4991689;28;20030;-60
2022/04/24 07:54:15;;;;;;;2.60;1.63;;;16.70;76.90;;;;;;4990948;28;20058;-61
2022/04/24 07:56:42;;;;;;;5.18;2.35;;;16.40;77.60;;;;;;4996042;28;20034;-62
2022/04/24 07:59:07;;;;;;;6.90;2.28;;;15.90;78.80;;;;;;4996497;28;20498;-61
2022/04/24 08:01:33;;;;;;;5.45;2.08;;;15.70;79.90;;;;;;4983433;28;20046;-64
2022/04/24 08:03:59;;;;;;;3.15;2.00;;;15.70;81.00;;;;;;4990863;28;20120;-62
2022/04/24 08:06:24;;;;;;;4.63;2.45;;;15.80;80.90;;;;;;4992364;28;20061;-62
2022/04/24 08:08:50;;;;;;;3.88;1.90;;;15.80;80.20;;;;;;4994231;28;20037;-62
2022/04/24 08:11:15;;;;;;;3.78;2.20;;;15.60;80.70;;;;;;4991940;28;20064;-62
2022/04/24 08:13:41;;;;;;;2.83;1.80;;;15.70;82.20;;;;;;4988741;28;20040;-61
2022/04/24 08:16:06;;;;;;;7.25;2.20;;;15.80;81.80;;;;;;4995125;28;20030;-61
2022/04/24 08:18:32;;;;;;;4.03;1.80;;;15.80;80.80;;;;;;4991571;28;20026;-62
2022/04/24 08:20:57;;;;;;;12.02;2.25;;;15.80;81.00;;;;;;4989837;28;20041;-61
2022/04/24 08:23:25;;;;;;;5.10;2.65;;;15.90;81.60;;;;;;4993842;28;20923;-66
2022/04/24 08:25:51;;;;;;;4.15;2.10;;;15.70;82.20;;;;;;4993795;28;20041;-62
2022/04/24 08:28:17;;;;;;;5.85;2.00;;;15.80;82.40;;;;;;4990184;28;20407;-62
2022/04/24 08:30:45;;;;;;;4.18;1.98;;;15.90;81.40;;;;;;4993404;28;21544;-61
2022/04/24 08:33:11;;;;;;;3.47;1.90;;;15.80;82.50;;;;;;4994664;28;20540;-61
2022/04/24 08:35:38;;;;;;;4.43;2.10;;;15.90;81.20;;;;;;4990428;28;20033;-62
2022/04/24 08:38:04;;;;;;;5.20;2.40;;;15.90;81.00;;;;;;4987890;28;20597;-60
2022/04/24 08:40:30;;;;;;;5.53;2.15;;;16.00;81.80;;;;;;4987745;28;20445;-60
2022/04/24 08:42:56;;;;;;;3.92;2.50;;;15.90;80.50;;;;;;4992888;28;20038;-61
2022/04/24 08:45:27;;;;;;;4.88;2.13;;;16.00;81.30;;;;;;4991400;28;20069;-60
2022/04/24 08:47:55;;;;;;;5.38;2.08;;;16.10;80.90;;;;;;4993735;28;20037;-60
2022/04/24 08:50:21;;;;;;;6.43;2.15;;;16.00;80.10;;;;;;4993850;28;20034;-60
2022/04/24 08:52:48;;;;;;;3.30;2.28;;;16.10;80.00;;;;;;4987914;28;20080;-61
2022/04/24 08:55:14;;;;;;;6.93;2.33;;;16.00;80.10;;;;;;5000281;28;20034;-61
2022/04/24 08:57:40;;;;;;;5.07;2.42;;;16.00;80.20;;;;;;4996387;28;20057;-60
2022/04/24 09:00:07;;;;;;;8.07;2.13;;;15.90;81.40;;;;;;4998234;28;20557;-60
2022/04/24 09:02:34;;;;;;;4.25;2.10;;;15.90;80.80;;;;;;4994571;28;20510;-63
2022/04/24 09:05:00;;;;;;;3.92;2.20;;;15.90;80.80;;;;;;4996622;28;20742;-59
2022/04/24 09:07:31;;;;;;;5.13;2.42;;;15.80;80.70;;;;;;4993161;28;20145;-62
2022/04/24 09:09:56;;;;;;;;;;;15.80;80.40;;;;;;4994363;28;20042;-62
2022/04/24 09:12:24;;;;;;;6.57;2.70;;;16.00;81.10;;;;;;4996659;28;20271;-60
2022/04/24 09:14:57;;;;;;;3.45;2.10;;;16.20;79.70;;;;;;4995781;28;20454;-61
2022/04/24 09:17:25;;;;;;;3.58;1.98;;;16.30;79.70;;;;;;5000103;28;20027;-59
2022/04/24 09:19:51;;;;;;;3.78;1.75;;;16.50;80.70;;;;;;4986351;28;20046;-61
2022/04/24 09:22:17;;;;;;;4.72;1.80;;;16.60;80.00;;;;;;4999382;28;20116;-62
2022/04/24 09:24:49;;;;;;;5.38;2.03;;;16.50;79.40;;;;;;4993452;28;20730;-61
2022/04/24 09:27:24;;;;;;;3.35;1.85;;;16.60;80.50;;;;;;4997454;28;20137;-61
2022/04/24 09:29:59;;;;;;;6.55;2.05;;;16.60;79.60;;;;;;4995436;28;20041;-63
2022/04/24 09:32:27;;;;;;;5.55;2.17;;;16.60;79.60;;;;;;4994829;28;20042;-60
2022/04/24 09:34:53;;;;;;;7.60;2.00;;;16.70;79.10;;;;;;4998831;28;20057;-61
2022/04/24 09:37:19;;;;;;;4.13;1.98;;;16.90;79.20;;;;;;4992481;28;20049;-60
2022/04/24 09:39:46;;;;;;;4.07;2.20;;;17.00;78.00;;;;;;4997487;28;20031;-60
2022/04/24 09:42:14;;;;;;;3.75;2.08;;;17.00;77.30;;;;;;4999033;28;20026;-60
2022/04/24 09:44:45;;;;;;;3.78;1.90;;;16.80;78.50;;;;;;4994145;28;20050;-61
2022/04/24 09:47:13;;;;;;;4.72;2.03;;;16.90;78.50;;;;;;4997097;28;20034;-61
2022/04/24 09:49:40;;;;;;;7.03;2.17;;;17.00;76.60;;;;;;4998840;28;20034;-60
2022/04/24 09:52:10;;;;;;;5.65;2.45;;;16.90;77.10;;;;;;4996577;28;20034;-62
2022/04/24 09:54:41;;;;;;;3.57;2.20;;;17.10;77.20;;;;;;4997738;28;20037;-61
2022/04/24 09:57:09;;;;;;;7.95;2.10;;;17.00;78.10;;;;;;4999343;28;20372;-60
2022/04/24 09:59:37;;;;;;;3.85;2.20;;;17.10;75.60;;;;;;4998999;28;20050;-61
2022/04/24 10:02:04;;;;;;;4.07;2.33;;;17.30;77.00;;;;;;5001257;28;20056;-61
2022/04/24 10:04:34;;;;;;;8.02;2.60;;;17.20;77.90;;;;;;4998293;28;20116;-61
2022/04/24 10:07:00;;;;;;;7.93;2.42;;;17.10;76.60;;;;;;5002029;28;20486;-60
2022/04/24 10:09:30;;;;;;;8.50;2.10;;;17.00;76.90;;;;;;4998684;28;20042;-60
2022/04/24 10:11:55;;;;;;;6.78;2.20;;;17.00;78.00;;;;;;4998772;28;20031;-60
2022/04/24 10:14:22;;;;;;;4.55;2.30;;;16.90;78.00;;;;;;4997802;28;20097;-61
2022/04/24 10:17:17;;;;;;;5.18;2.28;;;16.90;78.00;;;;;;4998268;28;20031;-61
2022/04/24 10:19:57;;;;;;;6.25;2.58;;;17.00;78.50;;;;;;5001242;28;20600;-60
2022/04/24 10:22:37;;;;;;;;;;;17.10;77.70;;;;;;4999030;28;20043;-62
2022/04/24 10:25:05;;;;;;;6.18;1.98;;;17.00;77.70;;;;;;4998000;28;19960;-60
2022/04/24 10:27:41;;;;;;;5.78;2.13;;;17.10;76.80;;;;;;4997476;28;20065;-60
2022/04/24 10:30:11;;;;;;;4.40;1.80;;;17.20;77.50;;;;;;4999956;28;20470;-60
2022/04/24 10:32:37;;;;;;;6.40;2.30;;;17.20;76.30;;;;;;4997216;28;20034;-60
2022/04/24 10:35:15;;;;;;;6.10;2.33;;;17.20;77.20;;;;;;5000649;28;20044;-61
2022/04/24 10:37:41;;;;;;;4.05;2.25;;;17.20;75.90;;;;;;4998131;28;20502;-61
2022/04/24 10:40:12;;;;;;;3.67;2.03;;;17.30;75.50;;;;;;4999519;28;20068;-61
2022/04/24 10:42:39;;;;;;;5.00;2.50;;;17.30;76.10;;;;;;4990243;28;20027;-60
2022/04/24 10:45:08;;;;;;;11.38;2.92;;;17.40;76.70;;;;;;4997676;28;20489;-60
2022/04/24 10:47:49;;;;;;;6.27;2.27;;;17.40;76.10;;;;;;4997567;28;20054;-59
2022/04/24 10:50:18;;;;;;;;;;;17.40;76.30;;;;;;4997739;28;20160;-60
2022/04/24 10:52:44;;;;;;;4.03;2.22;;;17.40;76.80;;;;;;4998846;28;19921;-62
2022/04/24 10:55:13;;;;;;;3.05;1.80;;;17.50;76.30;;;;;;4997984;28;20026;-60
2022/04/24 10:57:43;;;;;;;3.90;1.90;;;17.50;75.60;;;;;;4998944;28;20126;-60
2022/04/24 11:00:16;;;;;;;;;;;17.60;75.80;;;;;;4995486;28;20039;-61
2022/04/24 11:02:43;;;;;;;5.32;1.55;;;17.50;77.00;;;;;;4989341;28;19917;-60
2022/04/24 11:05:12;;;;;;;4.97;2.30;;;17.50;76.80;;;;;;4993481;28;20117;-61
2022/04/24 11:07:38;;;;;;;8.85;2.30;;;17.50;76.70;;;;;;4991064;28;20071;-60
2022/04/24 11:10:09;;;;;;;4.78;2.47;;;17.50;76.70;;;;;;4996176;28;20120;-60
2022/04/24 11:12:35;;;;;;;6.38;2.28;;;17.70;75.80;;;;;;4990685;28;20137;-62
2022/04/24 11:15:06;;;;;;;7.22;2.72;;;17.70;75.70;;;;;;4989615;28;20034;-61
2022/04/24 11:17:32;;;;;;;5.63;2.63;;;17.70;75.30;;;;;;4997464;28;20594;-60
2022/04/24 11:20:31;;;;;;;5.25;2.33;;;17.70;76.20;;;;;;4998158;28;20552;-60
2022/04/24 11:22:57;;;;;;;3.92;2.00;;;17.50;75.20;;;;;;4991187;28;20039;-60
2022/04/24 11:25:25;;;;;;;5.25;2.42;;;17.60;75.50;;;;;;4998383;28;20449;-61
2022/04/24 11:27:56;;;;;;;5.80;2.30;;;17.60;74.30;;;;;;4996030;28;20037;-60
2022/04/24 11:30:33;;;;;;;6.82;2.67;;;17.50;74.70;;;;;;4992524;28;20145;-62
2022/04/24 11:33:06;;;;;;;3.63;1.90;;;17.50;74.80;;;;;;4993800;28;20431;-60
2022/04/24 11:35:41;;;;;;;2.95;2.00;;;17.40;74.60;;;;;;4997966;28;20045;-60
2022/04/24 11:38:12;;;;;;;5.72;2.10;;;17.40;75.20;;;;;;4998253;28;20038;-61
2022/04/24 11:40:46;;;;;;;;;;;17.30;74.90;;;;;;4995657;28;20062;-61
2022/04/24 11:43:15;;;;;;;6.10;1.98;;;17.30;75.20;;;;;;4998374;28;19929;-59
2022/04/24 11:51:16;;;;;;;4.47;2.10;;;17.40;74.80;;;;;;4991638;28;20049;-60
2022/04/24 11:53:43;;;;;;;5.05;2.05;;;17.40;74.70;;;;;;4997023;28;20129;-63
2022/04/24 11:56:13;;;;;;;3.33;1.42;;;17.30;74.90;;;;;;4998727;28;20402;-60
2022/04/24 11:58:41;;;;;;;5.20;2.13;;;17.30;73.60;;;;;;4997448;28;20565;-60
2022/04/24 12:01:10;;;;;;;8.65;2.05;;;17.40;72.60;;;;;;5002994;28;20351;-61
2022/04/24 12:03:37;;;;;;;3.85;2.35;;;17.50;73.50;;;;;;4996930;28;20402;-60
2022/04/24 12:06:10;;;;;;;5.85;2.10;;;17.70;73.90;;;;;;4996829;28;20498;-60
2022/04/24 12:08:46;;;;;;;3.95;1.85;;;17.70;72.70;;;;;;4998494;28;20092;-60
2022/04/24 12:11:28;;;;;;;4.82;1.73;;;17.60;72.80;;;;;;4996878;28;20053;-60
2022/04/24 12:14:15;;;;;;;3.30;1.45;;;17.50;73.10;;;;;;4995468;28;20034;-60
2022/04/24 12:16:46;;;;;;;4.47;2.00;;;17.50;72.70;;;;;;4984805;28;20075;-60
2022/04/24 12:19:17;;;;;;;5.70;2.05;;;17.40;73.00;;;;;;4998578;28;20440;-60
2022/04/24 12:21:48;;;;;;;5.88;1.73;;;17.40;72.00;;;;;;4994057;28;20490;-61
2022/04/24 12:24:15;;;;;;;2.88;1.23;;;17.30;71.40;;;;;;5003456;28;20034;-60
2022/04/24 12:26:48;;;;;;;6.40;1.52;;;17.40;71.70;;;;;;4987210;28;20430;-60
2022/04/24 12:29:17;;;;;;;4.78;1.20;;;17.50;69.60;;;;;;4998471;28;20132;-60
2022/04/24 12:31:44;;;;;;;4.35;1.80;;;17.50;70.20;;;;;;4992443;28;20025;-62
2022/04/24 12:34:10;;;;;;;2.03;1.30;;;17.50;69.50;;;;;;4995077;28;20499;-61
2022/04/24 12:36:46;;;;;;;2.15;1.25;;;17.60;69.60;;;;;;4994907;28;20065;-62
2022/04/24 12:39:12;;;;;;;4.20;1.38;;;17.60;68.10;;;;;;4997680;28;20092;-61
2022/04/24 12:41:38;;;;;;;2.55;1.08;;;17.70;67.20;;;;;;4994616;28;20035;-60
2022/04/24 12:44:06;;;;;;;2.92;1.27;;;17.70;67.70;;;;;;4997517;28;20431;-61
2022/04/24 12:46:34;;;;;;;1.60;1.10;;;17.70;67.30;;;;;;4996034;28;20049;-60
2022/04/24 12:49:02;;;;;;;2.28;1.33;;;17.60;67.00;;;;;;4997530;28;20042;-60
2022/04/24 12:51:28;;;;;;;2.65;1.13;;;17.60;67.90;;;;;;4998870;28;20052;-60
2022/04/24 12:53:56;;;;;;;2.80;1.52;;;17.60;68.20;;;;;;4996403;28;20394;-61
2022/04/24 12:56:21;;;;;;;3.00;1.08;;;17.80;66.00;;;;;;5003335;28;20044;-60